shadow_left
Shadow_R
   
Learjet 24D corporate jet was damaged PDF Print E-mail
Status: Preliminary
Date: 15 SEP 2012
Time: 13:40
Type: Learjet 24D
Operator: private
Registration: D-CMMM
C/n / msn: 24-328
First flight: 1976
Engines: 2 General Electric CJ610-6
Crew: Fatalities: 0 / Occupants: 2
Passengers: Fatalities: 0 / Occupants: 0
Total: Fatalities: 0 / Occupants: 2
Airplane damage: Substantial
Airplane fate: Written off (damaged beyond repair)
Location: 1 km (0.6 mls) E of Bornholm-Rønne Airport (RNN) (Denmark) show on map
Phase: Approach (APR)
Nature: Unknown
Departure airport: Strausberg Airport () (EDAY), Germany
Destination airport: Bornholm-Rønne Airport (RNN) (RNN/EKRN), Denmark
Narrative:
A Learjet 24D corporate jet was damaged in an accident near Bornholm-Rønne Airport (RNN), Denmark. The two people on board the aircraft sustained serious injuries. The airplane came down in a corn field just east of runway 29.
Media reports to not state if the airplane crashed while on final approach or if it overran the end of the runway. Given the wind direction (290°) it seems likely that the airplane came down while on finals to runway 29.

Weather reported at the time of the accident (11:40 UTC / 13:40 LT) was:
EKRN 151150Z AUTO 28018KT 9999NDV SCT023/// BKN047/// BKN093/// 16/10 Q1008
[11:50 UTC: Wind 280 degrees at 18 knots; Temperature: 16°C, Dewpoint: 10°C, Pressure 1008 mb]
Last Updated ( Monday, 17 September 2012 )